sensor_id;sensor_type;location;lat;lon;timestamp;temperature;humidity
62581;DHT22;48640;48.770;9.148;2022-11-15T00:00:46;11.50;95.00
62581;DHT22;48640;48.770;9.148;2022-11-15T00:03:14;11.40;95.10
62581;DHT22;48640;48.770;9.148;2022-11-15T00:05:41;11.40;95.40
62581;DHT22;48640;48.770;9.148;2022-11-15T00:08:08;11.30;95.40
62581;DHT22;48640;48.770;9.148;2022-11-15T00:10:35;11.30;95.40
62581;DHT22;48640;48.770;9.148;2022-11-15T00:13:06;11.30;95.60
62581;DHT22;48640;48.770;9.148;2022-11-15T00:15:34;11.30;95.80
62581;DHT22;48640;48.770;9.148;2022-11-15T00:18:02;11.30;95.60
62581;DHT22;48640;48.770;9.148;2022-11-15T00:20:29;11.30;95.40
62581;DHT22;48640;48.770;9.148;2022-11-15T00:22:56;11.30;95.40
62581;DHT22;48640;48.770;9.148;2022-11-15T00:25:23;11.40;94.90
62581;DHT22;48640;48.770;9.148;2022-11-15T00:27:49;11.40;95.10
62581;DHT22;48640;48.770;9.148;2022-11-15T00:30:18;11.40;95.00
62581;DHT22;48640;48.770;9.148;2022-11-15T00:32:45;11.50;94.80
62581;DHT22;48640;48.770;9.148;2022-11-15T00:35:12;11.50;94.50
62581;DHT22;48640;48.770;9.148;2022-11-15T00:37:39;11.50;95.10
62581;DHT22;48640;48.770;9.148;2022-11-15T00:40:06;11.40;95.50
62581;DHT22;48640;48.770;9.148;2022-11-15T00:42:34;11.40;95.30
62581;DHT22;48640;48.770;9.148;2022-11-15T00:45:00;11.40;95.20
62581;DHT22;48640;48.770;9.148;2022-11-15T00:47:29;11.40;95.30
62581;DHT22;48640;48.770;9.148;2022-11-15T00:49:55;11.30;95.00
62581;DHT22;48640;48.770;9.148;2022-11-15T00:52:22;11.30;95.50
62581;DHT22;48640;48.770;9.148;2022-11-15T00:54:49;11.10;96.20
62581;DHT22;48640;48.770;9.148;2022-11-15T00:57:16;11.10;96.60
62581;DHT22;48640;48.770;9.148;2022-11-15T00:59:43;11.10;95.70
62581;DHT22;48640;48.770;9.148;2022-11-15T01:02:09;11.00;96.10
62581;DHT22;48640;48.770;9.148;2022-11-15T01:04:38;10.90;96.40
62581;DHT22;48640;48.770;9.148;2022-11-15T01:07:04;10.90;97.00
62581;DHT22;48640;48.770;9.148;2022-11-15T01:09:31;10.90;97.00
62581;DHT22;48640;48.770;9.148;2022-11-15T01:11:58;10.90;97.30
62581;DHT22;48640;48.770;9.148;2022-11-15T01:14:25;10.80;96.50
62581;DHT22;48640;48.770;9.148;2022-11-15T01:16:52;10.70;96.70
62581;DHT22;48640;48.770;9.148;2022-11-15T01:19:19;10.60;96.60
62581;DHT22;48640;48.770;9.148;2022-11-15T01:21:48;10.60;96.90
62581;DHT22;48640;48.770;9.148;2022-11-15T01:24:15;10.60;97.00
62581;DHT22;48640;48.770;9.148;2022-11-15T01:26:42;10.50;97.10
62581;DHT22;48640;48.770;9.148;2022-11-15T01:29:09;10.50;96.60
62581;DHT22;48640;48.770;9.148;2022-11-15T01:31:35;10.50;96.90
62581;DHT22;48640;48.770;9.148;2022-11-15T01:34:02;10.40;97.20
62581;DHT22;48640;48.770;9.148;2022-11-15T01:36:29;10.30;97.20
62581;DHT22;48640;48.770;9.148;2022-11-15T01:38:58;10.40;96.90
62581;DHT22;48640;48.770;9.148;2022-11-15T01:41:27;10.30;96.80
62581;DHT22;48640;48.770;9.148;2022-11-15T01:43:56;10.30;97.00
62581;DHT22;48640;48.770;9.148;2022-11-15T01:46:27;10.20;97.00
62581;DHT22;48640;48.770;9.148;2022-11-15T01:48:57;10.30;97.40
62581;DHT22;48640;48.770;9.148;2022-11-15T01:51:26;10.30;97.40
62581;DHT22;48640;48.770;9.148;2022-11-15T01:53:58;10.30;97.00
62581;DHT22;48640;48.770;9.148;2022-11-15T01:56:30;10.20;97.20
62581;DHT22;48640;48.770;9.148;2022-11-15T01:58:59;10.20;97.80
62581;DHT22;48640;48.770;9.148;2022-11-15T02:01:28;10.20;97.60
62581;DHT22;48640;48.770;9.148;2022-11-15T02:03:59;10.10;98.20
62581;DHT22;48640;48.770;9.148;2022-11-15T02:06:27;10.10;98.30
62581;DHT22;48640;48.770;9.148;2022-11-15T02:08:54;10.10;98.90
62581;DHT22;48640;48.770;9.148;2022-11-15T02:11:24;10.10;98.50
62581;DHT22;48640;48.770;9.148;2022-11-15T02:13:51;10.20;98.00
62581;DHT22;48640;48.770;9.148;2022-11-15T02:16:27;10.10;97.80
62581;DHT22;48640;48.770;9.148;2022-11-15T02:22:29;10.10;98.20
62581;DHT22;48640;48.770;9.148;2022-11-15T02:27:53;10.10;98.10
62581;DHT22;48640;48.770;9.148;2022-11-15T02:30:25;10.10;98.10
62581;DHT22;48640;48.770;9.148;2022-11-15T02:32:59;10.00;98.00
62581;DHT22;48640;48.770;9.148;2022-11-15T02:35:32;10.10;98.30
62581;DHT22;48640;48.770;9.148;2022-11-15T02:38:07;10.00;98.30
62581;DHT22;48640;48.770;9.148;2022-11-15T02:40:40;10.00;98.30
62581;DHT22;48640;48.770;9.148;2022-11-15T02:43:12;10.00;98.80
62581;DHT22;48640;48.770;9.148;2022-11-15T02:46:02;10.00;99.00
62581;DHT22;48640;48.770;9.148;2022-11-15T02:48:31;10.00;99.20
62581;DHT22;48640;48.770;9.148;2022-11-15T02:50:59;10.00;99.00
62581;DHT22;48640;48.770;9.148;2022-11-15T02:53:27;10.00;98.90
62581;DHT22;48640;48.770;9.148;2022-11-15T02:55:55;10.10;98.60
62581;DHT22;48640;48.770;9.148;2022-11-15T02:58:49;10.10;98.90
62581;DHT22;48640;48.770;9.148;2022-11-15T03:01:30;10.10;99.00
62581;DHT22;48640;48.770;9.148;2022-11-15T03:04:10;10.10;99.80
62581;DHT22;48640;48.770;9.148;2022-11-15T03:06:44;9.90;99.90
62581;DHT22;48640;48.770;9.148;2022-11-15T03:09:21;9.60;99.90
62581;DHT22;48640;48.770;9.148;2022-11-15T03:11:55;9.50;99.90
62581;DHT22;48640;48.770;9.148;2022-11-15T03:14:26;9.20;99.90
62581;DHT22;48640;48.770;9.148;2022-11-15T03:17:00;9.20;99.90
62581;DHT22;48640;48.770;9.148;2022-11-15T03:19:32;9.20;99.90
62581;DHT22;48640;48.770;9.148;2022-11-15T03:22:03;9.00;99.90
62581;DHT22;48640;48.770;9.148;2022-11-15T03:24:34;8.90;99.90
62581;DHT22;48640;48.770;9.148;2022-11-15T03:27:02;8.80;99.90
62581;DHT22;48640;48.770;9.148;2022-11-15T03:29:32;8.90;99.90
62581;DHT22;48640;48.770;9.148;2022-11-15T03:32:05;8.90;99.90
62581;DHT22;48640;48.770;9.148;2022-11-15T03:34:38;9.00;99.90
62581;DHT22;48640;48.770;9.148;2022-11-15T03:37:07;9.20;99.90
62581;DHT22;48640;48.770;9.148;2022-11-15T03:39:35;9.30;99.90
62581;DHT22;48640;48.770;9.148;2022-11-15T03:42:11;9.50;99.90
62581;DHT22;48640;48.770;9.148;2022-11-15T03:44:44;9.40;99.90
62581;DHT22;48640;48.770;9.148;2022-11-15T03:47:17;9.50;99.90
62581;DHT22;48640;48.770;9.148;2022-11-15T03:49:50;9.50;99.90
62581;DHT22;48640;48.770;9.148;2022-11-15T03:52:19;9.60;99.90
62581;DHT22;48640;48.770;9.148;2022-11-15T03:54:54;9.70;99.90
62581;DHT22;48640;48.770;9.148;2022-11-15T03:57:21;9.70;99.90
62581;DHT22;48640;48.770;9.148;2022-11-15T03:59:48;9.80;99.90
62581;DHT22;48640;48.770;9.148;2022-11-15T04:02:16;9.90;99.90
62581;DHT22;48640;48.770;9.148;2022-11-15T04:04:43;9.90;99.90
62581;DHT22;48640;48.770;9.148;2022-11-15T04:07:10;10.00;99.60
62581;DHT22;48640;48.770;9.148;2022-11-15T04:09:37;10.10;99.40
62581;DHT22;48640;48.770;9.148;2022-11-15T04:12:24;10.10;98.60
62581;DHT22;48640;48.770;9.148;2022-11-15T04:14:58;10.20;98.20
62581;DHT22;48640;48.770;9.148;2022-11-15T04:17:37;10.20;98.40
62581;DHT22;48640;48.770;9.148;2022-11-15T04:20:06;10.20;99.20
62581;DHT22;48640;48.770;9.148;2022-11-15T04:22:52;10.20;99.30
62581;DHT22;48640;48.770;9.148;2022-11-15T04:25:36;10.10;99.20
62581;DHT22;48640;48.770;9.148;2022-11-15T04:28:03;10.20;99.70
62581;DHT22;48640;48.770;9.148;2022-11-15T04:30:30;10.20;99.90
62581;DHT22;48640;48.770;9.148;2022-11-15T04:32:58;10.20;99.40
62581;DHT22;48640;48.770;9.148;2022-11-15T04:35:25;10.20;98.40
62581;DHT22;48640;48.770;9.148;2022-11-15T04:37:52;10.30;98.10
62581;DHT22;48640;48.770;9.148;2022-11-15T04:40:19;10.30;98.00
62581;DHT22;48640;48.770;9.148;2022-11-15T04:42:46;10.30;97.60
62581;DHT22;48640;48.770;9.148;2022-11-15T04:45:13;10.30;97.30
62581;DHT22;48640;48.770;9.148;2022-11-15T04:47:42;10.30;97.20
62581;DHT22;48640;48.770;9.148;2022-11-15T04:50:11;10.30;97.10
62581;DHT22;48640;48.770;9.148;2022-11-15T04:52:40;10.30;97.10
62581;DHT22;48640;48.770;9.148;2022-11-15T04:55:07;10.20;97.10
62581;DHT22;48640;48.770;9.148;2022-11-15T04:57:34;10.30;96.90
62581;DHT22;48640;48.770;9.148;2022-11-15T05:00:03;10.30;97.00
62581;DHT22;48640;48.770;9.148;2022-11-15T05:02:30;10.30;96.80
62581;DHT22;48640;48.770;9.148;2022-11-15T05:05:18;10.40;96.90
62581;DHT22;48640;48.770;9.148;2022-11-15T05:07:44;10.40;96.60
62581;DHT22;48640;48.770;9.148;2022-11-15T05:10:11;10.50;96.50
62581;DHT22;48640;48.770;9.148;2022-11-15T05:12:38;10.60;96.40
62581;DHT22;48640;48.770;9.148;2022-11-15T05:15:06;10.70;96.20
62581;DHT22;48640;48.770;9.148;2022-11-15T05:17:33;10.70;96.30
62581;DHT22;48640;48.770;9.148;2022-11-15T05:20:00;10.60;96.00
62581;DHT22;48640;48.770;9.148;2022-11-15T05:22:28;10.60;96.30
62581;DHT22;48640;48.770;9.148;2022-11-15T05:24:55;10.40;96.10
62581;DHT22;48640;48.770;9.148;2022-11-15T05:27:22;10.40;96.10
62581;DHT22;48640;48.770;9.148;2022-11-15T05:29:48;10.50;96.10
62581;DHT22;48640;48.770;9.148;2022-11-15T05:32:16;10.50;95.80
62581;DHT22;48640;48.770;9.148;2022-11-15T05:34:44;10.60;95.80
62581;DHT22;48640;48.770;9.148;2022-11-15T05:37:12;10.60;95.70
62581;DHT22;48640;48.770;9.148;2022-11-15T05:39:40;10.70;95.50
62581;DHT22;48640;48.770;9.148;2022-11-15T05:42:10;10.80;94.90
62581;DHT22;48640;48.770;9.148;2022-11-15T05:44:40;10.80;94.90
62581;DHT22;48640;48.770;9.148;2022-11-15T05:47:11;10.80;95.20
62581;DHT22;48640;48.770;9.148;2022-11-15T05:49:40;10.80;94.80
62581;DHT22;48640;48.770;9.148;2022-11-15T05:52:09;10.90;94.60
62581;DHT22;48640;48.770;9.148;2022-11-15T05:54:37;11.10;94.90
62581;DHT22;48640;48.770;9.148;2022-11-15T05:57:06;11.10;94.40
62581;DHT22;48640;48.770;9.148;2022-11-15T05:59:34;11.00;94.70
62581;DHT22;48640;48.770;9.148;2022-11-15T06:02:01;10.90;94.90
62581;DHT22;48640;48.770;9.148;2022-11-15T06:04:28;10.90;94.60
62581;DHT22;48640;48.770;9.148;2022-11-15T06:06:55;11.00;94.50
62581;DHT22;48640;48.770;9.148;2022-11-15T06:09:22;10.90;94.70
62581;DHT22;48640;48.770;9.148;2022-11-15T06:11:48;10.80;94.80
62581;DHT22;48640;48.770;9.148;2022-11-15T06:14:17;10.80;94.70
62581;DHT22;48640;48.770;9.148;2022-11-15T06:16:44;10.90;94.40
62581;DHT22;48640;48.770;9.148;2022-11-15T06:19:11;10.80;94.80
62581;DHT22;48640;48.770;9.148;2022-11-15T06:21:37;10.80;94.90
62581;DHT22;48640;48.770;9.148;2022-11-15T06:24:05;10.60;94.90
62581;DHT22;48640;48.770;9.148;2022-11-15T06:26:32;10.60;95.10
62581;DHT22;48640;48.770;9.148;2022-11-15T06:28:59;10.50;95.20
62581;DHT22;48640;48.770;9.148;2022-11-15T06:31:27;10.50;95.60
62581;DHT22;48640;48.770;9.148;2022-11-15T06:33:54;10.50;95.70
62581;DHT22;48640;48.770;9.148;2022-11-15T06:36:21;10.60;96.10
62581;DHT22;48640;48.770;9.148;2022-11-15T06:38:47;10.50;96.00
62581;DHT22;48640;48.770;9.148;2022-11-15T06:41:14;10.40;96.40
62581;DHT22;48640;48.770;9.148;2022-11-15T06:43:42;10.40;96.30
62581;DHT22;48640;48.770;9.148;2022-11-15T06:46:09;10.40;96.40
62581;DHT22;48640;48.770;9.148;2022-11-15T06:48:37;10.30;96.90
62581;DHT22;48640;48.770;9.148;2022-11-15T06:51:05;10.40;96.80
62581;DHT22;48640;48.770;9.148;2022-11-15T06:53:33;10.40;96.40
62581;DHT22;48640;48.770;9.148;2022-11-15T06:56:00;10.40;96.40
62581;DHT22;48640;48.770;9.148;2022-11-15T06:58:27;10.40;96.50
62581;DHT22;48640;48.770;9.148;2022-11-15T07:00:57;10.30;96.50
62581;DHT22;48640;48.770;9.148;2022-11-15T07:03:24;10.30;96.50
62581;DHT22;48640;48.770;9.148;2022-11-15T07:05:54;10.30;96.50
62581;DHT22;48640;48.770;9.148;2022-11-15T07:08:21;10.40;96.50
62581;DHT22;48640;48.770;9.148;2022-11-15T07:10:49;10.50;96.30
62581;DHT22;48640;48.770;9.148;2022-11-15T07:13:16;10.50;96.10
62581;DHT22;48640;48.770;9.148;2022-11-15T07:15:42;10.50;96.40
62581;DHT22;48640;48.770;9.148;2022-11-15T07:18:09;10.60;95.80
62581;DHT22;48640;48.770;9.148;2022-11-15T07:20:36;10.60;96.00
62581;DHT22;48640;48.770;9.148;2022-11-15T07:23:05;10.60;96.10
62581;DHT22;48640;48.770;9.148;2022-11-15T07:25:32;10.60;95.90
62581;DHT22;48640;48.770;9.148;2022-11-15T07:27:59;10.80;95.60
62581;DHT22;48640;48.770;9.148;2022-11-15T07:30:27;10.90;95.30
62581;DHT22;48640;48.770;9.148;2022-11-15T07:32:54;11.10;95.10
62581;DHT22;48640;48.770;9.148;2022-11-15T07:35:21;11.10;95.10
62581;DHT22;48640;48.770;9.148;2022-11-15T07:37:58;11.20;95.00
62581;DHT22;48640;48.770;9.148;2022-11-15T07:40:27;11.30;94.50
62581;DHT22;48640;48.770;9.148;2022-11-15T07:42:59;11.50;94.10
62581;DHT22;48640;48.770;9.148;2022-11-15T07:45:25;11.80;93.60
62581;DHT22;48640;48.770;9.148;2022-11-15T07:47:53;11.90;92.80
62581;DHT22;48640;48.770;9.148;2022-11-15T07:50:21;12.10;92.70
62581;DHT22;48640;48.770;9.148;2022-11-15T07:52:53;12.20;92.40
62581;DHT22;48640;48.770;9.148;2022-11-15T07:55:20;12.30;92.30
62581;DHT22;48640;48.770;9.148;2022-11-15T07:57:49;12.40;92.10
62581;DHT22;48640;48.770;9.148;2022-11-15T08:00:17;12.40;92.00
62581;DHT22;48640;48.770;9.148;2022-11-15T08:02:43;12.40;91.90
62581;DHT22;48640;48.770;9.148;2022-11-15T08:05:10;12.40;91.90
62581;DHT22;48640;48.770;9.148;2022-11-15T08:07:37;12.50;91.80
62581;DHT22;48640;48.770;9.148;2022-11-15T08:10:06;12.60;91.60
62581;DHT22;48640;48.770;9.148;2022-11-15T08:12:33;12.60;91.40
62581;DHT22;48640;48.770;9.148;2022-11-15T08:15:02;12.60;91.40
62581;DHT22;48640;48.770;9.148;2022-11-15T08:17:29;12.70;91.10
62581;DHT22;48640;48.770;9.148;2022-11-15T08:19:58;12.70;91.10
62581;DHT22;48640;48.770;9.148;2022-11-15T08:22:25;12.60;91.20
62581;DHT22;48640;48.770;9.148;2022-11-15T08:24:52;12.70;91.40
62581;DHT22;48640;48.770;9.148;2022-11-15T08:27:19;12.60;91.40
62581;DHT22;48640;48.770;9.148;2022-11-15T08:29:47;12.40;91.60
62581;DHT22;48640;48.770;9.148;2022-11-15T08:32:15;12.30;91.90
62581;DHT22;48640;48.770;9.148;2022-11-15T08:34:43;12.20;91.80
62581;DHT22;48640;48.770;9.148;2022-11-15T08:37:10;12.10;91.90
62581;DHT22;48640;48.770;9.148;2022-11-15T08:39:36;12.10;92.00
62581;DHT22;48640;48.770;9.148;2022-11-15T08:42:03;12.00;92.10
62581;DHT22;48640;48.770;9.148;2022-11-15T08:44:30;11.90;92.20
62581;DHT22;48640;48.770;9.148;2022-11-15T08:46:57;12.00;92.40
62581;DHT22;48640;48.770;9.148;2022-11-15T08:49:25;12.10;92.20
62581;DHT22;48640;48.770;9.148;2022-11-15T08:51:52;12.10;92.20
62581;DHT22;48640;48.770;9.148;2022-11-15T08:54:19;12.10;92.30
62581;DHT22;48640;48.770;9.148;2022-11-15T08:56:45;12.20;92.30
62581;DHT22;48640;48.770;9.148;2022-11-15T08:59:12;12.30;92.10
62581;DHT22;48640;48.770;9.148;2022-11-15T09:01:39;12.40;92.00
62581;DHT22;48640;48.770;9.148;2022-11-15T09:04:06;12.60;92.40
62581;DHT22;48640;48.770;9.148;2022-11-15T09:06:34;12.80;91.90
62581;DHT22;48640;48.770;9.148;2022-11-15T09:09:01;13.10;92.00
62581;DHT22;48640;48.770;9.148;2022-11-15T09:11:28;13.50;91.20
62581;DHT22;48640;48.770;9.148;2022-11-15T09:13:55;13.70;90.40
62581;DHT22;48640;48.770;9.148;2022-11-15T09:16:22;13.70;90.50
62581;DHT22;48640;48.770;9.148;2022-11-15T09:18:49;13.70;90.60
62581;DHT22;48640;48.770;9.148;2022-11-15T09:21:15;13.90;90.30
62581;DHT22;48640;48.770;9.148;2022-11-15T09:23:44;14.20;90.20
62581;DHT22;48640;48.770;9.148;2022-11-15T09:26:10;14.50;90.00
62581;DHT22;48640;48.770;9.148;2022-11-15T09:28:37;14.60;88.30
62581;DHT22;48640;48.770;9.148;2022-11-15T09:31:07;14.50;87.10
62581;DHT22;48640;48.770;9.148;2022-11-15T09:33:34;14.50;88.00
62581;DHT22;48640;48.770;9.148;2022-11-15T09:36:01;14.50;87.10
62581;DHT22;48640;48.770;9.148;2022-11-15T09:38:28;14.60;88.70
62581;DHT22;48640;48.770;9.148;2022-11-15T09:41:19;14.80;88.50
62581;DHT22;48640;48.770;9.148;2022-11-15T09:43:57;14.80;86.60
62581;DHT22;48640;48.770;9.148;2022-11-15T09:46:36;15.00;86.50
62581;DHT22;48640;48.770;9.148;2022-11-15T09:49:04;14.70;86.50
62581;DHT22;48640;48.770;9.148;2022-11-15T09:51:34;14.50;87.20
62581;DHT22;48640;48.770;9.148;2022-11-15T09:54:11;14.50;88.00
62581;DHT22;48640;48.770;9.148;2022-11-15T09:56:42;14.70;87.50
62581;DHT22;48640;48.770;9.148;2022-11-15T09:59:44;14.80;87.30
62581;DHT22;48640;48.770;9.148;2022-11-15T10:02:23;15.00;87.60
62581;DHT22;48640;48.770;9.148;2022-11-15T10:04:57;15.30;85.70
62581;DHT22;48640;48.770;9.148;2022-11-15T10:07:28;15.40;86.10
62581;DHT22;48640;48.770;9.148;2022-11-15T10:10:02;15.50;84.60
62581;DHT22;48640;48.770;9.148;2022-11-15T10:12:32;15.50;82.90
62581;DHT22;48640;48.770;9.148;2022-11-15T10:15:01;15.40;82.80
62581;DHT22;48640;48.770;9.148;2022-11-15T10:18:00;15.40;83.40
62581;DHT22;48640;48.770;9.148;2022-11-15T10:20:33;15.20;83.60
62581;DHT22;48640;48.770;9.148;2022-11-15T10:23:05;15.30;84.20
62581;DHT22;48640;48.770;9.148;2022-11-15T10:25:34;15.20;86.10
62581;DHT22;48640;48.770;9.148;2022-11-15T10:28:09;15.20;84.50
62581;DHT22;48640;48.770;9.148;2022-11-15T10:30:40;15.20;84.80
62581;DHT22;48640;48.770;9.148;2022-11-15T10:33:30;15.10;84.60
62581;DHT22;48640;48.770;9.148;2022-11-15T10:36:19;15.00;85.40
62581;DHT22;48640;48.770;9.148;2022-11-15T10:38:57;15.00;85.40
62581;DHT22;48640;48.770;9.148;2022-11-15T10:41:34;15.00;85.90
62581;DHT22;48640;48.770;9.148;2022-11-15T10:44:25;15.10;84.80
62581;DHT22;48640;48.770;9.148;2022-11-15T10:47:04;15.00;85.20
62581;DHT22;48640;48.770;9.148;2022-11-15T10:49:32;15.10;85.20
62581;DHT22;48640;48.770;9.148;2022-11-15T10:52:02;15.20;85.90
62581;DHT22;48640;48.770;9.148;2022-11-15T10:54:34;15.20;86.30
62581;DHT22;48640;48.770;9.148;2022-11-15T10:57:06;15.30;85.40
62581;DHT22;48640;48.770;9.148;2022-11-15T10:59:37;15.30;84.60
62581;DHT22;48640;48.770;9.148;2022-11-15T11:04:50;15.30;86.90
62581;DHT22;48640;48.770;9.148;2022-11-15T11:07:21;15.20;86.10
62581;DHT22;48640;48.770;9.148;2022-11-15T11:09:57;15.10;85.70
62581;DHT22;48640;48.770;9.148;2022-11-15T11:12:28;15.10;86.40
62581;DHT22;48640;48.770;9.148;2022-11-15T11:14:58;15.00;86.80
62581;DHT22;48640;48.770;9.148;2022-11-15T11:17:33;15.00;87.00
62581;DHT22;48640;48.770;9.148;2022-11-15T11:20:05;14.90;87.40
62581;DHT22;48640;48.770;9.148;2022-11-15T11:22:38;14.80;87.30
62581;DHT22;48640;48.770;9.148;2022-11-15T11:25:19;14.90;87.40
62581;DHT22;48640;48.770;9.148;2022-11-15T11:28:03;15.00;87.60
62581;DHT22;48640;48.770;9.148;2022-11-15T11:30:47;15.00;88.10
62581;DHT22;48640;48.770;9.148;2022-11-15T11:33:18;15.00;87.90
62581;DHT22;48640;48.770;9.148;2022-11-15T11:36:07;15.10;89.10
62581;DHT22;48640;48.770;9.148;2022-11-15T11:38:50;15.20;86.90
62581;DHT22;48640;48.770;9.148;2022-11-15T11:41:34;15.20;87.20
62581;DHT22;48640;48.770;9.148;2022-11-15T11:44:15;15.20;87.60
62581;DHT22;48640;48.770;9.148;2022-11-15T11:46:49;15.20;87.40
62581;DHT22;48640;48.770;9.148;2022-11-15T11:49:21;15.30;86.90
62581;DHT22;48640;48.770;9.148;2022-11-15T11:51:54;15.40;86.90
62581;DHT22;48640;48.770;9.148;2022-11-15T11:54:28;15.50;86.80
62581;DHT22;48640;48.770;9.148;2022-11-15T11:57:00;15.50;86.20
62581;DHT22;48640;48.770;9.148;2022-11-15T11:59:33;15.70;86.30
62581;DHT22;48640;48.770;9.148;2022-11-15T12:02:12;15.70;85.70
62581;DHT22;48640;48.770;9.148;2022-11-15T12:04:44;15.60;86.30
62581;DHT22;48640;48.770;9.148;2022-11-15T12:07:17;15.70;86.50
62581;DHT22;48640;48.770;9.148;2022-11-15T12:09:50;15.90;86.50
62581;DHT22;48640;48.770;9.148;2022-11-15T12:12:23;15.90;86.30
62581;DHT22;48640;48.770;9.148;2022-11-15T12:14:53;15.80;85.20
62581;DHT22;48640;48.770;9.148;2022-11-15T12:17:23;15.50;86.80
62581;DHT22;48640;48.770;9.148;2022-11-15T12:19:51;15.60;86.80
62581;DHT22;48640;48.770;9.148;2022-11-15T12:22:20;15.60;88.90
62581;DHT22;48640;48.770;9.148;2022-11-15T12:24:54;15.60;87.70
62581;DHT22;48640;48.770;9.148;2022-11-15T12:27:30;15.60;87.80
62581;DHT22;48640;48.770;9.148;2022-11-15T12:30:00;15.70;88.00
62581;DHT22;48640;48.770;9.148;2022-11-15T12:32:31;15.60;86.90
62581;DHT22;48640;48.770;9.148;2022-11-15T12:35:01;15.70;87.40
62581;DHT22;48640;48.770;9.148;2022-11-15T12:37:52;15.70;88.20
62581;DHT22;48640;48.770;9.148;2022-11-15T12:40:26;15.60;87.60
62581;DHT22;48640;48.770;9.148;2022-11-15T12:45:46;15.40;89.60
62581;DHT22;48640;48.770;9.148;2022-11-15T12:54:55;15.40;89.20
62581;DHT22;48640;48.770;9.148;2022-11-15T12:57:38;15.40;89.20
62581;DHT22;48640;48.770;9.148;2022-11-15T13:00:37;15.30;89.60
62581;DHT22;48640;48.770;9.148;2022-11-15T13:03:28;15.20;90.30
62581;DHT22;48640;48.770;9.148;2022-11-15T13:09:03;15.10;90.50
62581;DHT22;48640;48.770;9.148;2022-11-15T13:11:51;15.00;90.70
62581;DHT22;48640;48.770;9.148;2022-11-15T13:14:46;15.00;90.40
62581;DHT22;48640;48.770;9.148;2022-11-15T13:17:27;15.10;90.40
62581;DHT22;48640;48.770;9.148;2022-11-15T13:19:59;15.10;91.10
62581;DHT22;48640;48.770;9.148;2022-11-15T13:22:26;15.10;91.50
62581;DHT22;48640;48.770;9.148;2022-11-15T13:25:16;15.00;91.40
62581;DHT22;48640;48.770;9.148;2022-11-15T13:27:47;15.10;91.30
62581;DHT22;48640;48.770;9.148;2022-11-15T13:30:19;14.90;92.00
62581;DHT22;48640;48.770;9.148;2022-11-15T13:32:47;14.70;92.40
62581;DHT22;48640;48.770;9.148;2022-11-15T13:35:20;14.70;92.80
62581;DHT22;48640;48.770;9.148;2022-11-15T13:37:47;14.70;92.70
62581;DHT22;48640;48.770;9.148;2022-11-15T13:40:27;14.70;92.90
62581;DHT22;48640;48.770;9.148;2022-11-15T13:42:57;14.60;93.50
62581;DHT22;48640;48.770;9.148;2022-11-15T13:45:25;14.40;93.70
62581;DHT22;48640;48.770;9.148;2022-11-15T13:47:54;14.50;93.70
62581;DHT22;48640;48.770;9.148;2022-11-15T13:50:26;14.50;93.70
62581;DHT22;48640;48.770;9.148;2022-11-15T13:52:56;14.60;93.40
62581;DHT22;48640;48.770;9.148;2022-11-15T13:55:24;14.30;93.70
62581;DHT22;48640;48.770;9.148;2022-11-15T13:57:53;14.10;94.60
62581;DHT22;48640;48.770;9.148;2022-11-15T14:00:27;14.00;95.30
62581;DHT22;48640;48.770;9.148;2022-11-15T14:02:57;14.00;96.00
62581;DHT22;48640;48.770;9.148;2022-11-15T14:05:32;13.90;95.60
62581;DHT22;48640;48.770;9.148;2022-11-15T14:08:01;13.90;96.40
62581;DHT22;48640;48.770;9.148;2022-11-15T14:10:31;13.70;96.60
62581;DHT22;48640;48.770;9.148;2022-11-15T14:12:58;13.70;96.80
62581;DHT22;48640;48.770;9.148;2022-11-15T14:15:30;13.60;96.80
62581;DHT22;48640;48.770;9.148;2022-11-15T14:17:57;13.60;97.00
62581;DHT22;48640;48.770;9.148;2022-11-15T14:20:30;13.60;97.30
62581;DHT22;48640;48.770;9.148;2022-11-15T14:22:59;13.70;96.70
62581;DHT22;48640;48.770;9.148;2022-11-15T14:25:27;13.70;96.90
62581;DHT22;48640;48.770;9.148;2022-11-15T14:28:15;13.60;97.10
62581;DHT22;48640;48.770;9.148;2022-11-15T14:30:44;13.50;96.70
62581;DHT22;48640;48.770;9.148;2022-11-15T14:33:21;13.50;97.20
62581;DHT22;48640;48.770;9.148;2022-11-15T14:35:49;13.40;97.40
62581;DHT22;48640;48.770;9.148;2022-11-15T14:38:16;13.40;97.60
62581;DHT22;48640;48.770;9.148;2022-11-15T14:40:43;13.50;97.20
62581;DHT22;48640;48.770;9.148;2022-11-15T14:43:10;13.50;97.20
62581;DHT22;48640;48.770;9.148;2022-11-15T14:45:38;13.60;96.50
62581;DHT22;48640;48.770;9.148;2022-11-15T14:48:06;13.60;96.20
62581;DHT22;48640;48.770;9.148;2022-11-15T14:50:34;13.80;96.10
62581;DHT22;48640;48.770;9.148;2022-11-15T14:53:02;13.60;96.00
62581;DHT22;48640;48.770;9.148;2022-11-15T14:55:30;13.60;95.20
62581;DHT22;48640;48.770;9.148;2022-11-15T14:58:00;13.50;94.80
62581;DHT22;48640;48.770;9.148;2022-11-15T15:00:28;13.60;95.00
62581;DHT22;48640;48.770;9.148;2022-11-15T15:02:56;13.60;94.00
62581;DHT22;48640;48.770;9.148;2022-11-15T15:05:26;13.60;94.40
62581;DHT22;48640;48.770;9.148;2022-11-15T15:07:54;13.60;94.30
62581;DHT22;48640;48.770;9.148;2022-11-15T15:10:21;13.70;94.40
62581;DHT22;48640;48.770;9.148;2022-11-15T15:12:48;13.70;94.20
62581;DHT22;48640;48.770;9.148;2022-11-15T15:15:16;13.60;94.20
62581;DHT22;48640;48.770;9.148;2022-11-15T15:17:44;13.60;93.90
62581;DHT22;48640;48.770;9.148;2022-11-15T15:20:11;13.60;95.70
62581;DHT22;48640;48.770;9.148;2022-11-15T15:22:39;13.60;96.10
62581;DHT22;48640;48.770;9.148;2022-11-15T15:25:24;13.60;96.00
62581;DHT22;48640;48.770;9.148;2022-11-15T15:27:52;13.60;95.70
62581;DHT22;48640;48.770;9.148;2022-11-15T15:30:20;13.60;95.60
62581;DHT22;48640;48.770;9.148;2022-11-15T15:32:47;13.50;96.10
62581;DHT22;48640;48.770;9.148;2022-11-15T15:35:14;13.60;95.60
62581;DHT22;48640;48.770;9.148;2022-11-15T15:37:44;13.40;95.20
62581;DHT22;48640;48.770;9.148;2022-11-15T15:40:15;13.40;94.80
62581;DHT22;48640;48.770;9.148;2022-11-15T15:42:42;13.40;95.10
62581;DHT22;48640;48.770;9.148;2022-11-15T15:45:09;13.30;95.30
62581;DHT22;48640;48.770;9.148;2022-11-15T15:47:36;13.40;97.00
62581;DHT22;48640;48.770;9.148;2022-11-15T15:50:04;13.40;97.00
62581;DHT22;48640;48.770;9.148;2022-11-15T15:52:38;13.30;96.30
62581;DHT22;48640;48.770;9.148;2022-11-15T15:55:07;13.20;95.60
62581;DHT22;48640;48.770;9.148;2022-11-15T15:57:34;13.20;95.60
62581;DHT22;48640;48.770;9.148;2022-11-15T16:00:01;13.20;95.60
62581;DHT22;48640;48.770;9.148;2022-11-15T16:02:28;13.20;96.30
62581;DHT22;48640;48.770;9.148;2022-11-15T16:04:55;13.20;96.80
62581;DHT22;48640;48.770;9.148;2022-11-15T16:07:22;13.10;96.00
62581;DHT22;48640;48.770;9.148;2022-11-15T16:09:50;13.10;96.70
62581;DHT22;48640;48.770;9.148;2022-11-15T16:12:27;13.10;95.90
62581;DHT22;48640;48.770;9.148;2022-11-15T16:14:54;13.20;96.20